createdAt,value
2018-03-22T00:02:22.852Z,10.60
2018-03-22T00:04:50.411Z,11.18
2018-03-22T00:07:17.944Z,10.32
2018-03-22T00:09:45.502Z,10.40
2018-03-22T00:12:13.046Z,10.80
2018-03-22T00:14:41.349Z,9.05
2018-03-22T00:17:08.887Z,9.50
2018-03-22T00:19:37.187Z,9.18
2018-03-22T00:22:04.728Z,8.85
2018-03-22T00:24:32.281Z,9.40
2018-03-22T00:27:00.594Z,8.45
2018-03-22T00:29:28.152Z,9.13
2018-03-22T00:31:55.705Z,8.60
2018-03-22T00:34:23.248Z,10.10
2018-03-22T00:36:50.788Z,9.85
2018-03-22T00:39:19.132Z,10.25
2018-03-22T00:41:46.624Z,9.75
2018-03-22T00:44:14.939Z,9.70
2018-03-22T00:46:42.480Z,10.18
2018-03-22T00:49:10.032Z,9.70
2018-03-22T00:51:37.573Z,10.25
2018-03-22T00:54:05.880Z,10.00
2018-03-22T00:56:33.402Z,10.48
2018-03-22T00:59:00.945Z,9.40
2018-03-22T01:01:28.463Z,8.13
2018-03-22T01:03:56.006Z,8.75
2018-03-22T01:06:23.548Z,8.55
2018-03-22T01:08:51.854Z,9.15
2018-03-22T01:11:19.405Z,7.80
2018-03-22T01:13:46.937Z,8.90
2018-03-22T01:16:15.254Z,10.27
2018-03-22T01:18:42.773Z,8.50
2018-03-22T01:21:11.083Z,8.60
2018-03-22T01:23:38.606Z,9.20
2018-03-22T01:26:06.955Z,8.90
2018-03-22T01:28:34.482Z,10.63
2018-03-22T01:31:02.026Z,10.50
2018-03-22T01:33:29.568Z,8.05
2018-03-22T01:35:57.877Z,8.68
2018-03-22T01:38:25.427Z,8.05
2018-03-22T01:40:52.953Z,8.27
2018-03-22T01:43:20.511Z,8.05
2018-03-22T01:45:48.038Z,9.48
2018-03-22T01:48:15.588Z,8.88
2018-03-22T01:50:43.130Z,9.20
2018-03-22T01:53:13.639Z,8.88
2018-03-22T01:55:41.960Z,9.20
2018-03-22T01:58:09.500Z,8.75
2018-03-22T02:00:37.061Z,9.40
2018-03-22T02:03:04.589Z,7.72
2018-03-22T02:05:32.925Z,7.72
2018-03-22T02:08:00.453Z,10.02
2018-03-22T02:10:28.001Z,7.72
2018-03-22T02:12:55.538Z,8.43
2018-03-22T02:15:23.866Z,7.30
2018-03-22T02:17:51.384Z,8.73
2018-03-22T02:20:19.702Z,9.60
2018-03-22T02:22:47.230Z,7.60
2018-03-22T02:25:14.771Z,10.10
2018-03-22T02:27:43.069Z,9.02
2018-03-22T02:30:10.623Z,8.25
2018-03-22T02:32:38.159Z,8.18
2018-03-22T02:35:06.459Z,8.23
2018-03-22T02:37:34.008Z,6.57
2018-03-22T02:40:02.307Z,7.28
2018-03-22T02:42:29.846Z,8.70
2018-03-22T02:44:58.157Z,9.15
2018-03-22T02:47:25.686Z,10.05
2018-03-22T02:49:54.007Z,8.40
2018-03-22T02:52:21.536Z,8.85
2018-03-22T02:54:49.077Z,8.13
2018-03-22T02:57:17.358Z,8.20
2018-03-22T02:59:44.897Z,8.18
2018-03-22T03:02:13.196Z,8.30
2018-03-22T03:04:40.772Z,8.02
2018-03-22T03:07:08.323Z,7.35
2018-03-22T03:09:35.844Z,7.15
2018-03-22T03:12:03.392Z,7.07
2018-03-22T03:14:30.929Z,8.40
2018-03-22T03:16:58.481Z,7.60
2018-03-22T03:19:26.027Z,7.32
2018-03-22T03:21:53.572Z,8.25
2018-03-22T03:24:21.095Z,6.65
2018-03-22T03:26:48.646Z,7.12
2018-03-22T03:29:16.172Z,7.50
2018-03-22T03:31:43.695Z,8.27
2018-03-22T03:34:12.001Z,8.25
2018-03-22T03:36:39.531Z,8.70
2018-03-22T03:39:07.093Z,8.10
2018-03-22T03:41:35.492Z,7.70
2018-03-22T03:44:03.033Z,8.30
2018-03-22T03:46:31.317Z,8.57
2018-03-22T03:48:58.863Z,7.90
2018-03-22T03:51:27.159Z,7.75
2018-03-22T03:53:54.734Z,8.88
2018-03-22T03:56:22.267Z,7.93
2018-03-22T03:58:50.580Z,7.30
2018-03-22T04:01:18.129Z,8.65
2018-03-22T04:03:45.651Z,9.70
2018-03-22T04:06:13.966Z,8.40
2018-03-22T04:08:41.482Z,7.12
2018-03-22T04:11:09.808Z,7.82
2018-03-22T04:13:37.351Z,7.70
2018-03-22T04:16:04.915Z,6.62
2018-03-22T04:18:32.449Z,8.35
2018-03-22T04:21:00.747Z,8.45
2018-03-22T04:23:28.290Z,7.90
2018-03-22T04:25:55.818Z,8.00
2018-03-22T04:28:23.366Z,7.85
2018-03-22T04:30:50.894Z,8.60
2018-03-22T04:33:18.434Z,7.00
2018-03-22T04:35:45.981Z,7.70
2018-03-22T04:38:14.304Z,7.85
2018-03-22T04:40:41.836Z,7.65
2018-03-22T04:43:09.370Z,8.38
2018-03-22T04:45:37.682Z,8.55
2018-03-22T04:48:05.213Z,8.50
2018-03-22T04:50:32.763Z,9.40
2018-03-22T04:53:01.063Z,9.02
2018-03-22T04:55:28.612Z,7.95
2018-03-22T04:57:56.137Z,8.43
2018-03-22T05:00:23.705Z,9.05
2018-03-22T05:02:51.240Z,9.45
2018-03-22T05:05:18.782Z,8.65
2018-03-22T05:07:46.307Z,8.70
2018-03-22T05:10:13.869Z,9.75
2018-03-22T05:12:41.423Z,8.18
2018-03-22T05:15:08.955Z,8.45
2018-03-22T05:17:36.488Z,8.35
2018-03-22T05:20:04.007Z,8.43
2018-03-22T05:22:31.549Z,8.10
2018-03-22T05:24:59.898Z,7.65
2018-03-22T05:27:27.430Z,7.95
2018-03-22T05:29:54.983Z,6.90
2018-03-22T05:32:22.529Z,7.20
2018-03-22T05:34:50.077Z,8.27
2018-03-22T05:37:18.089Z,7.90
2018-03-22T05:39:45.690Z,8.75
2018-03-22T05:42:13.995Z,10.50
2018-03-22T05:44:41.559Z,9.30
2018-03-22T05:47:09.101Z,10.13
2018-03-22T05:49:36.663Z,9.88
2018-03-22T05:52:05.050Z,9.10
2018-03-22T05:54:32.874Z,10.57
2018-03-22T05:57:00.448Z,8.73
2018-03-22T05:59:28.831Z,7.60
2018-03-22T06:01:57.139Z,8.13
2018-03-22T06:04:24.652Z,8.48
2018-03-22T06:06:52.186Z,8.63
2018-03-22T06:09:19.707Z,7.28
2018-03-22T06:11:47.256Z,8.77
2018-03-22T06:14:14.782Z,8.00
2018-03-22T06:16:42.346Z,8.40
2018-03-22T06:19:09.884Z,8.68
2018-03-22T06:21:37.426Z,7.62
2018-03-22T06:24:04.976Z,9.60
2018-03-22T06:26:32.511Z,8.55
2018-03-22T06:29:00.834Z,9.38
2018-03-22T06:31:28.377Z,8.80
2018-03-22T06:33:55.921Z,9.43
2018-03-22T06:36:23.461Z,8.52
2018-03-22T06:38:51.034Z,10.00
2018-03-22T06:41:18.554Z,9.98
2018-03-22T06:43:46.115Z,9.35
2018-03-22T06:46:13.652Z,9.23
2018-03-22T06:48:41.169Z,10.70
2018-03-22T06:51:08.722Z,9.10
2018-03-22T06:53:36.265Z,10.38
2018-03-22T06:56:04.592Z,10.07
2018-03-22T06:58:32.116Z,8.55
2018-03-22T07:00:59.656Z,8.98
2018-03-22T07:03:27.942Z,8.70
2018-03-22T07:05:56.259Z,9.55
2018-03-22T07:08:23.851Z,8.70
2018-03-22T07:10:51.383Z,8.23
2018-03-22T07:13:18.928Z,8.38
2018-03-22T07:15:46.465Z,8.75
2018-03-22T07:18:14.021Z,9.45
2018-03-22T07:20:41.656Z,9.02
2018-03-22T07:23:09.204Z,9.23
2018-03-22T07:25:36.740Z,8.18
2018-03-22T07:28:04.282Z,9.30
2018-03-22T07:30:31.824Z,8.05
2018-03-22T07:32:59.405Z,7.60
2018-03-22T07:35:26.924Z,8.80
2018-03-22T07:37:55.209Z,8.60
2018-03-22T07:40:23.509Z,8.23
2018-03-22T07:42:56.716Z,7.75
2018-03-22T07:45:24.257Z,8.52
2018-03-22T07:47:51.791Z,10.63
2018-03-22T07:50:20.101Z,9.38
2018-03-22T07:52:47.644Z,8.68
2018-03-22T07:55:15.199Z,9.23
2018-03-22T07:57:42.740Z,8.38
2018-03-22T08:00:11.036Z,8.50
2018-03-22T08:02:38.575Z,7.50
2018-03-22T08:05:06.853Z,9.20
2018-03-22T08:07:35.171Z,8.73
2018-03-22T08:10:02.713Z,8.45
2018-03-22T08:12:30.244Z,7.65
2018-03-22T08:14:58.540Z,7.65
2018-03-22T08:17:26.084Z,7.35
2018-03-22T08:19:54.376Z,6.90
2018-03-22T08:22:21.940Z,8.40
2018-03-22T08:24:49.482Z,6.40
2018-03-22T08:27:17.762Z,7.65
2018-03-22T08:29:46.058Z,6.75
2018-03-22T08:32:13.591Z,7.30
2018-03-22T08:34:41.916Z,7.18
2018-03-22T08:37:09.443Z,7.97
2018-03-22T08:39:36.979Z,5.85
2018-03-22T08:42:04.499Z,7.35
2018-03-22T08:44:32.068Z,6.35
2018-03-22T08:46:59.589Z,6.40
2018-03-22T08:49:27.111Z,7.40
2018-03-22T08:51:54.656Z,6.60
2018-03-22T08:54:22.175Z,6.32
2018-03-22T08:56:49.718Z,6.35
2018-03-22T08:59:17.238Z,5.95
2018-03-22T09:01:44.784Z,5.47
2018-03-22T09:04:12.315Z,6.15
2018-03-22T09:06:40.648Z,6.05
2018-03-22T09:09:08.946Z,7.30
2018-03-22T09:11:36.515Z,6.68
2018-03-22T09:14:04.059Z,4.97
2018-03-22T09:16:31.599Z,5.07
2018-03-22T09:18:59.906Z,4.78
2018-03-22T09:21:27.503Z,4.72
2018-03-22T09:23:55.046Z,4.60
2018-03-22T09:26:22.580Z,5.55
2018-03-22T09:28:50.134Z,4.12
2018-03-22T09:31:18.411Z,5.10
2018-03-22T09:33:46.824Z,4.75
2018-03-22T09:36:14.349Z,5.25
2018-03-22T09:38:41.891Z,5.07
2018-03-22T09:41:10.215Z,4.87
2018-03-22T09:43:37.755Z,5.43
2018-03-22T09:46:05.299Z,4.70
2018-03-22T09:48:33.584Z,4.37
2018-03-22T09:51:01.128Z,4.82
2018-03-22T09:53:29.421Z,5.05
2018-03-22T09:55:56.954Z,4.90
2018-03-22T09:58:24.473Z,4.28
2018-03-22T10:00:52.024Z,4.40
2018-03-22T10:03:19.537Z,4.65
2018-03-22T10:05:47.820Z,4.32
2018-03-22T10:08:16.146Z,5.07
2018-03-22T10:10:43.680Z,5.12
2018-03-22T10:13:11.214Z,5.60
2018-03-22T10:15:39.498Z,4.85
2018-03-22T10:18:07.816Z,4.30
2018-03-22T10:20:36.215Z,5.30
2018-03-22T10:23:03.765Z,4.15
2018-03-22T10:25:31.284Z,4.60
2018-03-22T10:27:58.801Z,4.43
2018-03-22T10:30:26.340Z,4.70
2018-03-22T10:32:53.883Z,5.20
2018-03-22T10:35:21.432Z,5.25
2018-03-22T10:37:48.955Z,5.35
2018-03-22T10:40:17.260Z,5.65
2018-03-22T10:42:44.787Z,4.40
2018-03-22T10:45:13.102Z,4.43
2018-03-22T10:47:40.636Z,4.62
2018-03-22T10:50:08.951Z,4.80
2018-03-22T10:52:36.468Z,5.18
2018-03-22T10:55:04.748Z,5.97
2018-03-22T10:57:33.041Z,5.22
2018-03-22T11:00:00.564Z,5.40
2018-03-22T11:02:33.784Z,6.25
2018-03-22T11:05:01.320Z,5.35
2018-03-22T11:07:28.853Z,5.30
2018-03-22T11:09:56.382Z,5.85
2018-03-22T11:12:23.917Z,4.95
2018-03-22T11:14:52.224Z,5.35
2018-03-22T11:17:19.729Z,5.07
2018-03-22T11:19:47.273Z,4.80
2018-03-22T11:22:14.808Z,6.00
2018-03-22T11:24:42.355Z,4.95
2018-03-22T11:27:09.892Z,5.05
2018-03-22T11:29:37.426Z,5.40
2018-03-22T11:32:05.724Z,5.30
2018-03-22T11:34:33.280Z,4.50
2018-03-22T11:37:01.565Z,4.95
2018-03-22T11:39:29.112Z,4.55
2018-03-22T11:41:56.658Z,5.68
2018-03-22T11:44:24.942Z,5.05
2018-03-22T11:46:53.242Z,4.60
2018-03-22T11:49:20.762Z,4.80
2018-03-22T11:51:48.308Z,4.78
2018-03-22T11:54:15.849Z,4.78
2018-03-22T11:56:43.407Z,6.40
2018-03-22T11:59:10.931Z,5.07
2018-03-22T12:01:38.469Z,5.22
2018-03-22T12:04:06.793Z,4.22
2018-03-22T12:06:34.327Z,5.57
2018-03-22T12:09:01.886Z,5.60
2018-03-22T12:11:29.435Z,5.78
2018-03-22T12:13:56.974Z,4.95
2018-03-22T12:16:25.275Z,4.80
2018-03-22T12:18:52.840Z,4.70
2018-03-22T12:21:20.363Z,5.20
2018-03-22T12:23:47.907Z,5.43
2018-03-22T12:26:15.546Z,4.95
2018-03-22T12:28:43.074Z,5.53
2018-03-22T12:31:10.615Z,5.07
2018-03-22T12:33:38.918Z,5.25
2018-03-22T12:36:06.489Z,5.15
2018-03-22T12:38:34.016Z,5.72
2018-03-22T12:41:02.333Z,5.45
2018-03-22T12:43:29.883Z,4.90
2018-03-22T12:45:57.461Z,5.60
2018-03-22T12:48:24.997Z,5.80
2018-03-22T12:50:52.527Z,5.05
2018-03-22T12:53:20.832Z,4.53
2018-03-22T12:55:48.352Z,4.72
2018-03-22T12:58:15.905Z,5.32
2018-03-22T13:00:43.424Z,5.60
2018-03-22T13:03:10.972Z,5.00
2018-03-22T13:05:38.510Z,5.60
2018-03-22T13:08:06.050Z,4.37
2018-03-22T13:10:34.335Z,4.30
2018-03-22T13:13:02.628Z,4.18
2018-03-22T13:15:30.197Z,5.00
2018-03-22T13:17:57.735Z,4.82
2018-03-22T13:20:26.055Z,6.00
2018-03-22T13:22:53.592Z,4.90
2018-03-22T13:25:21.149Z,4.60
2018-03-22T13:27:48.667Z,4.22
2018-03-22T13:30:16.222Z,4.70
2018-03-22T13:32:43.745Z,4.05
2018-03-22T13:35:11.313Z,4.45
2018-03-22T13:37:38.848Z,3.92
2018-03-22T13:40:06.377Z,4.55
2018-03-22T13:42:34.686Z,4.40
2018-03-22T13:45:02.201Z,4.25
2018-03-22T13:47:29.747Z,4.45
2018-03-22T13:49:57.279Z,5.65
2018-03-22T13:52:24.817Z,4.90
2018-03-22T13:54:52.346Z,4.47
2018-03-22T13:57:20.658Z,4.97
2018-03-22T13:59:48.188Z,4.72
2018-03-22T14:02:16.479Z,3.75
2018-03-22T14:04:44.029Z,4.65
2018-03-22T14:07:12.320Z,4.22
2018-03-22T14:09:39.865Z,4.62
2018-03-22T14:12:08.142Z,4.00
2018-03-22T14:14:36.443Z,5.25
2018-03-22T14:17:03.957Z,4.65
2018-03-22T14:19:31.498Z,5.25
2018-03-22T14:21:59.025Z,4.40
2018-03-22T14:24:26.573Z,3.95
2018-03-22T14:26:54.094Z,4.07
2018-03-22T14:29:21.629Z,4.05
2018-03-22T14:31:49.171Z,5.32
2018-03-22T14:34:16.700Z,5.62
2018-03-22T14:36:44.258Z,5.82
2018-03-22T14:39:11.782Z,5.20
2018-03-22T14:41:39.326Z,4.80
2018-03-22T14:44:06.855Z,5.20
2018-03-22T14:46:34.410Z,5.00
2018-03-22T14:49:01.939Z,4.82
2018-03-22T14:51:30.216Z,4.20
2018-03-22T14:53:58.523Z,4.43
2018-03-22T14:56:26.051Z,4.60
2018-03-22T14:58:54.366Z,4.95
2018-03-22T15:01:21.887Z,4.95
2018-03-22T15:03:50.186Z,5.05
2018-03-22T15:06:17.714Z,5.00
2018-03-22T15:08:46.038Z,4.85
2018-03-22T15:11:13.572Z,4.35
2018-03-22T15:13:41.114Z,3.58
2018-03-22T15:16:09.390Z,4.15
2018-03-22T15:18:37.686Z,3.83
2018-03-22T15:21:05.213Z,3.58
2018-03-22T15:23:32.739Z,3.87
2018-03-22T15:26:00.272Z,3.90
2018-03-22T15:28:27.797Z,2.85
2018-03-22T15:30:56.099Z,4.07
2018-03-22T15:33:23.636Z,2.80
2018-03-22T15:35:51.955Z,4.40
2018-03-22T15:38:19.478Z,3.33
2018-03-22T15:40:47.772Z,3.35
2018-03-22T15:43:15.314Z,3.33
2018-03-22T15:45:43.616Z,3.30
2018-03-22T15:48:11.180Z,3.00
2018-03-22T15:50:38.720Z,3.60
2018-03-22T15:53:07.036Z,3.33
2018-03-22T15:55:34.564Z,3.78
2018-03-22T15:58:02.170Z,3.85
2018-03-22T16:00:29.700Z,3.30
2018-03-22T16:02:57.248Z,3.10
2018-03-22T16:05:24.785Z,3.85
2018-03-22T16:07:53.079Z,4.10
2018-03-22T16:10:20.604Z,4.07
2018-03-22T16:12:48.129Z,4.78
2018-03-22T16:15:15.676Z,4.80
2018-03-22T16:17:43.203Z,5.00
2018-03-22T16:20:11.496Z,4.72
2018-03-22T16:22:39.022Z,4.53
2018-03-22T16:25:07.473Z,5.20
2018-03-22T16:27:35.016Z,5.68
2018-03-22T16:30:02.536Z,5.25
2018-03-22T16:32:30.078Z,5.62
2018-03-22T16:34:57.593Z,5.12
2018-03-22T16:37:25.255Z,5.15
2018-03-22T16:39:52.763Z,5.95
2018-03-22T16:42:21.080Z,5.95
2018-03-22T16:44:48.602Z,6.30
2018-03-22T16:47:16.957Z,5.43
2018-03-22T16:49:44.465Z,5.15
2018-03-22T16:52:12.012Z,4.60
2018-03-22T16:54:39.540Z,5.10
2018-03-22T16:57:07.069Z,5.50
2018-03-22T16:59:34.613Z,4.93
2018-03-22T17:02:02.158Z,4.45
2018-03-22T17:04:29.665Z,3.97
2018-03-22T17:06:57.193Z,2.75
2018-03-22T17:09:24.733Z,2.15
2018-03-22T17:11:52.272Z,1.98
2018-03-22T17:14:20.568Z,1.65
2018-03-22T17:16:48.082Z,1.58
2018-03-22T17:19:15.610Z,1.70
2018-03-22T17:21:43.136Z,2.92
2018-03-22T17:24:10.669Z,2.17
2018-03-22T17:26:38.988Z,1.90
2018-03-22T17:29:06.508Z,2.10
2018-03-22T17:31:34.044Z,1.50
2018-03-22T17:34:01.571Z,2.00
2018-03-22T17:36:29.129Z,1.67
2018-03-22T17:38:56.657Z,2.20
2018-03-22T17:41:24.931Z,1.95
2018-03-22T17:43:53.242Z,2.33
2018-03-22T17:46:20.777Z,1.60
2018-03-22T17:48:48.314Z,1.80
2018-03-22T17:51:16.619Z,2.10
2018-03-22T17:53:44.176Z,2.10
2018-03-22T17:56:11.710Z,2.03
2018-03-22T17:58:40.048Z,2.40
2018-03-22T18:01:07.577Z,3.25
2018-03-22T18:03:35.132Z,1.85
2018-03-22T18:06:02.661Z,2.30
2018-03-22T18:08:31.005Z,2.78
2018-03-22T18:10:58.527Z,2.67
2018-03-22T18:13:26.060Z,2.05
2018-03-22T18:15:54.360Z,1.90
2018-03-22T18:18:21.911Z,2.03
2018-03-22T18:20:49.450Z,2.00
2018-03-22T18:23:16.976Z,2.22
2018-03-22T18:25:45.238Z,2.35
2018-03-22T18:28:12.780Z,2.00
2018-03-22T18:30:40.316Z,3.08
2018-03-22T18:33:08.644Z,2.40
2018-03-22T18:35:36.172Z,2.10
2018-03-22T18:38:04.849Z,3.10
2018-03-22T18:40:32.427Z,2.83
2018-03-22T18:43:00.025Z,2.65
2018-03-22T18:45:27.540Z,2.85
2018-03-22T18:47:55.115Z,3.30
2018-03-22T18:50:22.656Z,3.40
2018-03-22T18:52:50.177Z,3.70
2018-03-22T18:55:17.739Z,3.03
2018-03-22T18:57:45.254Z,3.65
2018-03-22T19:00:12.824Z,3.85
2018-03-22T19:02:41.197Z,3.87
2018-03-22T19:05:08.824Z,4.25
2018-03-22T19:07:36.347Z,4.15
2018-03-22T19:10:03.887Z,3.90
2018-03-22T19:12:32.432Z,3.62
2018-03-22T19:14:59.972Z,4.30
2018-03-22T19:17:28.293Z,4.15
2018-03-22T19:19:55.828Z,4.78
2018-03-22T19:22:23.362Z,4.50
2018-03-22T19:24:51.664Z,4.12
2018-03-22T19:27:19.219Z,4.50
2018-03-22T19:29:46.801Z,4.72
2018-03-22T19:32:14.335Z,4.18
2018-03-22T19:34:41.864Z,5.40
2018-03-22T19:37:09.427Z,4.62
2018-03-22T19:39:37.713Z,5.22
2018-03-22T19:42:06.020Z,5.53
2018-03-22T19:44:33.565Z,5.35
2018-03-22T19:47:01.090Z,5.53
2018-03-22T19:49:28.686Z,4.87
2018-03-22T19:51:56.213Z,7.75
2018-03-22T19:54:23.765Z,4.62
2018-03-22T19:56:51.292Z,4.62
2018-03-22T19:59:18.842Z,5.18
2018-03-22T20:01:46.360Z,5.40
2018-03-22T20:04:14.644Z,4.90
2018-03-22T20:06:42.939Z,5.05
2018-03-22T20:09:10.446Z,5.25
2018-03-22T20:11:37.984Z,5.20
2018-03-22T20:14:05.523Z,7.70
2018-03-22T20:16:33.050Z,6.30
2018-03-22T20:19:01.358Z,5.82
2018-03-22T20:21:28.895Z,5.10
2018-03-22T20:23:57.206Z,5.20
2018-03-22T20:26:24.737Z,4.78
2018-03-22T20:28:52.271Z,6.40
2018-03-22T20:31:19.792Z,6.82
2018-03-22T20:33:47.335Z,5.25
2018-03-22T20:36:14.853Z,5.68
2018-03-22T20:38:43.153Z,8.80
2018-03-22T20:41:10.688Z,8.23
2018-03-22T20:43:38.990Z,12.55
2018-03-22T20:46:06.513Z,10.18
2018-03-22T20:48:34.070Z,9.52
2018-03-22T20:51:01.594Z,7.32
2018-03-22T20:53:29.124Z,6.97
2018-03-22T20:55:56.665Z,5.78
2018-03-22T20:58:25.445Z,6.47
2018-03-22T21:00:53.752Z,6.28
2018-03-22T21:03:21.282Z,5.55
2018-03-22T21:05:49.588Z,5.40
2018-03-22T21:08:17.140Z,6.00
2018-03-22T21:10:44.673Z,6.70
2018-03-22T21:13:12.210Z,5.95
2018-03-22T21:15:39.744Z,6.40
2018-03-22T21:18:07.279Z,5.25
2018-03-22T21:20:34.800Z,5.53
2018-03-22T21:23:02.350Z,5.97
2018-03-22T21:25:29.900Z,6.80
2018-03-22T21:27:57.436Z,6.55
2018-03-22T21:30:24.946Z,6.03
2018-03-22T21:32:52.506Z,6.80
2018-03-22T21:35:20.790Z,7.00
2018-03-22T21:37:49.117Z,7.45
2018-03-22T21:40:16.628Z,8.35
2018-03-22T21:42:44.928Z,9.25
2018-03-22T21:45:12.508Z,6.70
2018-03-22T21:47:40.086Z,7.00
2018-03-22T21:50:07.624Z,10.05
2018-03-22T21:52:47.019Z,10.75
2018-03-22T21:55:15.340Z,9.85
2018-03-22T21:57:42.859Z,7.07
2018-03-22T22:00:11.161Z,7.53
2018-03-22T22:02:38.686Z,5.97
2018-03-22T22:05:07.011Z,7.65
2018-03-22T22:07:34.553Z,8.82
2018-03-22T22:10:02.082Z,12.00
2018-03-22T22:12:30.412Z,8.85
2018-03-22T22:14:57.976Z,10.50
2018-03-22T22:17:25.513Z,7.18
2018-03-22T22:19:53.031Z,8.75
2018-03-22T22:22:20.565Z,7.90
2018-03-22T22:24:48.102Z,10.20
2018-03-22T22:27:15.660Z,9.90
2018-03-22T22:29:43.185Z,17.62
2018-03-22T22:32:11.488Z,14.07
2018-03-22T22:34:39.042Z,9.13
2018-03-22T22:37:06.565Z,9.00
2018-03-22T22:39:34.888Z,7.60
2018-03-22T22:42:02.431Z,7.85
2018-03-22T22:44:29.967Z,7.12
2018-03-22T22:46:58.260Z,5.85
2018-03-22T22:49:25.809Z,6.47
2018-03-22T22:51:54.109Z,6.22
2018-03-22T22:54:21.665Z,6.75
2018-03-22T22:56:49.193Z,5.95
2018-03-22T22:59:17.498Z,6.45
2018-03-22T23:01:45.064Z,6.30
2018-03-22T23:04:12.599Z,5.45
2018-03-22T23:06:41.019Z,6.25
2018-03-22T23:09:08.692Z,5.70
2018-03-22T23:11:36.222Z,5.97
2018-03-22T23:14:03.754Z,5.85
2018-03-22T23:16:32.074Z,5.80
2018-03-22T23:18:59.604Z,6.25
2018-03-22T23:21:27.146Z,5.28
2018-03-22T23:23:55.453Z,5.82
2018-03-22T23:26:22.972Z,6.12
2018-03-22T23:28:50.514Z,5.72
2018-03-22T23:31:18.022Z,5.93
2018-03-22T23:33:45.565Z,6.07
2018-03-22T23:36:13.849Z,5.35
2018-03-22T23:38:41.406Z,5.43
2018-03-22T23:41:09.700Z,6.10
2018-03-22T23:43:37.243Z,5.68
2018-03-22T23:46:05.524Z,6.20
2018-03-22T23:48:33.053Z,6.05
2018-03-22T23:51:01.370Z,5.85
2018-03-22T23:53:28.902Z,6.65
2018-03-22T23:55:57.221Z,4.87
2018-03-22T23:58:24.760Z,5.20
